^^
Grace C. Lehan Memorial Weather Station Historical Data
Daily Summary for January 22, 2022 Units:  English    Metric   Both
Daily Weekly Monthly Yearly
  High: Low: Average:
Temperature: 28.4 °F 8.7 °F 18.5 °F
Dew Point: 15 °F 0.1 °F 7.4 °F
Humidity: 76% 53% 62%
Wind Speed: 4.4mph 0mph 1.2mph
Wind Gust: 14mph - -
Wind- - WSW
Pressure: 30.54 in 30.11 in -
Precipitation: 0.00 in    
 
 
Tabular Data for January 22, 2022
Time Temperature Dew Point Pressure Wind Wind Speed Wind Gust Humidity Rainfall Rate (Hourly) solar
00:04 15 °F 2.9 °F 30.54 in NNW 1.9 mph 9 mph 58% 0.00 in 0 W/m2
00:09 15 °F 2.9 °F 30.54 in NNW 2.5 mph 7 mph 58% 0.00 in 0 W/m2
00:14 14.9 °F 2.8 °F 30.54 in NNW 1.8 mph 7 mph 58% 0.00 in 0 W/m2
00:19 14.9 °F 2.5 °F 30.54 in North 1.5 mph 7 mph 57.1% 0.00 in 0 W/m2
00:24 14.9 °F 2.8 °F 30.54 in NNW 1.2 mph 10 mph 58% 0.00 in 0 W/m2
00:29 14.8 °F 2.7 °F 30.53 in NNW 1.6 mph 10 mph 58% 0.00 in 0 W/m2
00:34 14.7 °F 2.4 °F 30.53 in NNW 1.9 mph 10 mph 57.3% 0.00 in 0 W/m2
00:39 14.6 °F 2.1 °F 30.52 in NNW 0.6 mph 9 mph 57% 0.00 in 0 W/m2
00:44 14.5 °F 2 °F 30.52 in NNW 2.3 mph 10 mph 57% 0.00 in 0 W/m2
00:49 14.3 °F 1.9 °F 30.52 in NNW 2.1 mph 10 mph 57% 0.00 in 0 W/m2
00:54 14.1 °F 1.7 °F 30.52 in NNW 0.3 mph 10 mph 57.1% 0.00 in 0 W/m2
00:59 13.9 °F 1.8 °F 30.52 in NNW 2.3 mph 10 mph 57.6% 0.00 in 0 W/m2
01:04 13.8 °F 1.6 °F 30.52 in NNW 1.7 mph 10 mph 57.7% 0.00 in 0 W/m2
01:09 13.6 °F 1.4 °F 30.52 in NNW 1.4 mph 10 mph 57.4% 0.00 in 0 W/m2
01:14 13.5 °F 1.4 °F 30.52 in North 1.2 mph 10 mph 57.8% 0.00 in 0 W/m2
01:19 13.4 °F 1.4 °F 30.52 in North 1.4 mph 10 mph 58.1% 0.00 in 0 W/m2
01:24 13.2 °F 1.6 °F 30.52 in North 1.4 mph 10 mph 59% 0.00 in 0 W/m2
01:29 13.1 °F 1.5 °F 30.52 in NNW 3.3 mph 10 mph 59% 0.00 in 0 W/m2
01:34 13 °F 1.3 °F 30.52 in NNW 2 mph 10 mph 59% 0.00 in 0 W/m2
01:39 12.8 °F 1.3 °F 30.51 in NW 2 mph 10 mph 59.2% 0.00 in 0 W/m2
01:44 12.6 °F 1.4 °F 30.51 in NNW 3.4 mph 10 mph 60% 0.00 in 0 W/m2
01:49 12.5 °F 1.2 °F 30.52 in NNW 1.7 mph 10 mph 60% 0.00 in 0 W/m2
01:54 12.3 °F 1.1 °F 30.51 in NNW 3 mph 10 mph 60% 0.00 in 0 W/m2
01:59 12.2 °F 0.9 °F 30.51 in NNW 3.6 mph 10 mph 60% 0.00 in 0 W/m2
02:04 12 °F 1 °F 30.51 in NNW 2.5 mph 10 mph 60.5% 0.00 in 0 W/m2
02:09 11.9 °F 1.1 °F 30.51 in NW 2.2 mph 7 mph 61% 0.00 in 0 W/m2
02:14 11.8 °F 1 °F 30.50 in NNW 4.4 mph 10 mph 61% 0.00 in 0 W/m2
02:19 11.7 °F 0.8 °F 30.50 in NNW 2.5 mph 10 mph 61% 0.00 in 0 W/m2
02:24 11.6 °F 1.1 °F 30.50 in NNW 1.6 mph 10 mph 62% 0.00 in 0 W/m2
02:29 11.4 °F 1 °F 30.50 in NNW 3.3 mph 10 mph 62% 0.00 in 0 W/m2
02:34 11.3 °F 1.2 °F 30.50 in NNW 2.8 mph 10 mph 62.9% 0.00 in 0 W/m2
02:39 11.2 °F 0.9 °F 30.50 in NNW 2.9 mph 8 mph 62.5% 0.00 in 0 W/m2
02:44 11.1 °F 1 °F 30.50 in NNW 1.6 mph 8 mph 63% 0.00 in 0 W/m2
02:49 11 °F 0.9 °F 30.49 in NNW 2.7 mph 8 mph 63% 0.00 in 0 W/m2
02:54 11 °F 0.8 °F 30.49 in North 2.8 mph 8 mph 63% 0.00 in 0 W/m2
02:59 10.9 °F 0.8 °F 30.48 in North 1.2 mph 8 mph 63% 0.00 in 0 W/m2
03:04 10.8 °F 0.7 °F 30.48 in North 2.5 mph 8 mph 63% 0.00 in 0 W/m2
03:09 10.7 °F 0.6 °F 30.48 in North 1.2 mph 5 mph 63.1% 0.00 in 0 W/m2
03:14 10.7 °F 0.9 °F 30.48 in North 1.2 mph 5 mph 64% 0.00 in 0 W/m2
03:19 10.5 °F 0.8 °F 30.48 in NNW 1.3 mph 6 mph 64% 0.00 in 0 W/m2
03:24 10.5 °F 0.8 °F 30.48 in NNW 0.9 mph 6 mph 64% 0.00 in 0 W/m2
03:29 10.4 °F 0.7 °F 30.47 in NNW 3.3 mph 7 mph 64% 0.00 in 0 W/m2
03:34 10.4 °F 0.6 °F 30.47 in NNW 2.4 mph 8 mph 64% 0.00 in 0 W/m2
03:39 10.3 °F 0.6 °F 30.47 in NNW 1.8 mph 9 mph 64.2% 0.00 in 0 W/m2
03:44 10.3 °F 0.7 °F 30.47 in NNW 1.4 mph 9 mph 64.3% 0.00 in 0 W/m2
03:49 10.2 °F 0.7 °F 30.47 in NNW 1.4 mph 9 mph 64.7% 0.00 in 0 W/m2
03:54 10.2 °F 0.7 °F 30.47 in NNW 1.6 mph 9 mph 64.8% 0.00 in 0 W/m2
03:59 10.1 °F 0.7 °F 30.47 in NNW 2.6 mph 9 mph 64.9% 0.00 in 0 W/m2
04:00 10.1 °F 0.4 °F 30.47 in Calm   9 mph 64% 0.00 in 0 W/m2
04:09 10 °F 0.6 °F 30.46 in NNW 1.3 mph 6 mph 65% 0.00 in 0 W/m2
04:14 10 °F 0.6 °F 30.46 in NNW 2.4 mph 9 mph 65% 0.00 in 0 W/m2
04:19 10 °F 0.6 °F 30.47 in NNW 2.1 mph 9 mph 65% 0.00 in 0 W/m2
04:24 9.9 °F 0.5 °F 30.46 in North 1.6 mph 9 mph 65% 0.00 in 0 W/m2
04:29 9.9 °F 0.5 °F 30.46 in NNW 2.9 mph 10 mph 65% 0.00 in 0 W/m2
04:34 9.9 °F 0.5 °F 30.46 in North 1.4 mph 10 mph 65% 0.00 in 0 W/m2
04:39 9.9 °F 0.5 °F 30.46 in NNW 2.6 mph 6 mph 65% 0.00 in 0 W/m2
04:44 9.8 °F 0.4 °F 30.46 in NNW 2 mph 6 mph 65% 0.00 in 0 W/m2
04:49 9.8 °F 0.4 °F 30.46 in NNW 0.6 mph 6 mph 65% 0.00 in 0 W/m2
04:54 9.8 °F 0.4 °F 30.45 in NNW 2.8 mph 9 mph 65% 0.00 in 0 W/m2
04:59 9.8 °F 0.4 °F 30.45 in North 1 mph 9 mph 65% 0.00 in 0 W/m2
05:04 9.7 °F 0.3 °F 30.45 in North 1.8 mph 9 mph 65% 0.00 in 0 W/m2
05:09 9.7 °F 0.6 °F 30.44 in NNW 1.5 mph 6 mph 66% 0.00 in 0 W/m2
05:14 9.6 °F 0.5 °F 30.44 in NNW 1.8 mph 6 mph 66% 0.00 in 0 W/m2
05:19 9.6 °F 0.5 °F 30.44 in NNW 2.8 mph 10 mph 66% 0.00 in 0 W/m2
05:24 9.5 °F 0.5 °F 30.44 in NNW 1.5 mph 10 mph 66% 0.00 in 0 W/m2
05:29 9.5 °F 0.4 °F 30.44 in NNW 1.8 mph 10 mph 66% 0.00 in 0 W/m2
05:34 9.4 °F 0.4 °F 30.44 in NNW 1.2 mph 10 mph 66% 0.00 in 0 W/m2
05:39 9.4 °F 0.4 °F 30.44 in NNW 2.3 mph 7 mph 66% 0.00 in 0 W/m2
05:44 9.3 °F 0.3 °F 30.44 in NNW 1.8 mph 7 mph 66.1% 0.00 in 0 W/m2
05:49 9.3 °F 0.6 °F 30.44 in NNW 1.6 mph 7 mph 67% 0.00 in 0 W/m2
05:54 9.2 °F 0.5 °F 30.44 in NNW 1.5 mph 7 mph 67% 0.00 in 0 W/m2
05:59 9.2 °F 0.5 °F 30.45 in NNW 1.1 mph 7 mph 67% 0.00 in 0 W/m2
06:04 9.2 °F 0.5 °F 30.45 in NNW 0.8 mph 7 mph 67% 0.00 in 0 W/m2
06:09 9.1 °F 0.4 °F 30.45 in NNW 0.6 mph 5 mph 67% 0.00 in 0 W/m2
06:14 9.1 °F 0.4 °F 30.45 in NNW 0.7 mph 5 mph 67% 0.00 in 0 W/m2
06:19 9.1 °F 0.6 °F 30.45 in NNW 0.2 mph 5 mph 67.6% 0.00 in 0 W/m2
06:24 9 °F 0.4 °F 30.45 in NNW 1.7 mph 7 mph 67.5% 0.00 in 0 W/m2
06:29 9 °F 0.4 °F 30.45 in NNW 2.5 mph 9 mph 67.4% 0.00 in 0 W/m2
06:34 8.9 °F 0.3 °F 30.45 in NNW 0.7 mph 9 mph 67.1% 0.00 in 0 W/m2
06:39 8.9 °F 0.5 °F 30.45 in NNW 1.9 mph 6 mph 67.8% 0.00 in 0 W/m2
06:44 8.9 °F 0.5 °F 30.45 in NW 2.8 mph 6 mph 68% 0.00 in 0 W/m2
06:49 8.9 °F 0.4 °F 30.45 in NNW 3.1 mph 6 mph 67.7% 0.00 in 0 W/m2
06:54 8.9 °F 0.4 °F 30.45 in NNW 0.4 mph 6 mph 67.7% 0.00 in 0 W/m2
06:59 8.9 °F 0.4 °F 30.45 in NNW 0.8 mph 6 mph 67.6% 0.00 in 0 W/m2
07:04 8.8 °F 0.2 °F 30.45 in NNW 1.3 mph 6 mph 67.3% 0.00 in 0 W/m2
07:09 8.8 °F 0.4 °F 30.45 in North 2.5 mph 6 mph 68% 0.00 in 0 W/m2
07:14 8.8 °F 0.3 °F 30.45 in NNW 3.4 mph 10 mph 67.6% 0.00 in 0 W/m2
07:19 8.7 °F 0.1 °F 30.45 in NNW 2.1 mph 10 mph 67.4% 0.00 in 5 W/m2
07:24 8.7 °F 0.2 °F 30.45 in NNW 4.1 mph 10 mph 67.5% 0.00 in 7 W/m2
07:29 8.7 °F 0.1 °F 30.45 in NNW 1.5 mph 10 mph 67.3% 0.00 in 9 W/m2
07:34 8.7 °F 0.3 °F 30.45 in NNW 0.4 mph 10 mph 68% 0.00 in 11 W/m2
07:39 8.7 °F 0.3 °F 30.46 in NNW 1.9 mph 4 mph 68% 0.00 in 12 W/m2
07:44 8.7 °F 0.3 °F 30.46 in NNW 3.1 mph 7 mph 68% 0.00 in 21 W/m2
07:49 8.8 °F 0.4 °F 30.46 in NNW 3.1 mph 10 mph 68% 0.00 in 49 W/m2
07:54 9 °F 0.6 °F 30.46 in NNW 2.1 mph 10 mph 68% 0.00 in 49 W/m2
07:59 9.4 °F 0.9 °F 30.46 in NNW 3.8 mph 10 mph 67.5% 0.00 in 49 W/m2
08:09 10.3 °F 1.3 °F 30.46 in NNW 1.9 mph 10 mph 66.2% 0.00 in 62 W/m2
08:14 10.8 °F 1.5 °F 30.46 in NNW 3 mph 10 mph 65.2% 0.00 in 69 W/m2
08:19 11.2 °F 1.6 °F 30.46 in North 3.2 mph 10 mph 64.5% 0.00 in 102 W/m2
08:24 11.6 °F 1.8 °F 30.46 in NNW 2.4 mph 10 mph 63.8% 0.00 in 144 W/m2
08:29 12 °F 1.9 °F 30.46 in NNW 4 mph 14 mph 63% 0.00 in 188 W/m2
08:34 12.6 °F 2.2 °F 30.46 in North 2.9 mph 14 mph 62.3% 0.00 in 199 W/m2
08:39 13.4 °F 2.9 °F 30.46 in North 1.2 mph 7 mph 62.2% 0.00 in 244 W/m2
08:44 14.2 °F 3.2 °F 30.45 in North 1.4 mph 7 mph 60.7% 0.00 in 265 W/m2
08:49 15 °F 3.6 °F 30.45 in North 1.7 mph 7 mph 59.9% 0.00 in 272 W/m2
08:54 15.7 °F 3.9 °F 30.45 in North 2.3 mph 7 mph 59% 0.00 in 287 W/m2
08:59 16.4 °F 4.4 °F 30.45 in North 0.6 mph 7 mph 58.3% 0.00 in 299 W/m2
09:04 17.1 °F 4.9 °F 30.44 in NNW 2.7 mph 10 mph 57.8% 0.00 in 306 W/m2
09:09 17.7 °F 5 °F 30.44 in NNW 1 mph 10 mph 56.9% 0.00 in 322 W/m2
09:14 18.1 °F 5.1 °F 30.43 in North 1.6 mph 10 mph 56.1% 0.00 in 325 W/m2
09:19 18.4 °F 5.4 °F 30.43 in NNW 1.6 mph 10 mph 56.1% 0.00 in 330 W/m2
09:24 18.6 °F 5 °F 30.43 in North 2.9 mph 10 mph 54.8% 0.00 in 329 W/m2
09:29 18.3 °F 4.1 °F 30.43 in NNE 1.7 mph 10 mph 53.2% 0.00 in 309 W/m2
09:34 18.1 °F 4.8 °F 30.44 in NNW 2.6 mph 10 mph 55.4% 0.00 in 272 W/m2
09:39 18.1 °F 5 °F 30.44 in North 2.2 mph 8 mph 55.8% 0.00 in 225 W/m2
09:44 18 °F 4.8 °F 30.43 in NE 1.1 mph 8 mph 55.7% 0.00 in 225 W/m2
09:49 17.8 °F 4.7 °F 30.43 in North 1.5 mph 9 mph 55.9% 0.00 in 309 W/m2
09:54 18 °F 5.3 °F 30.43 in NNE 1.5 mph 9 mph 56.9% 0.00 in 258 W/m2
09:59 18 °F 4.9 °F 30.42 in North 2.9 mph 11 mph 56% 0.00 in 181 W/m2
10:04 17.7 °F 5.1 °F 30.42 in NNW 4 mph 14 mph 57.1% 0.00 in 190 W/m2
10:09 17.5 °F 5.1 °F 30.42 in NNW 3.3 mph 14 mph 57.4% 0.00 in 220 W/m2
10:14 17.6 °F 5.4 °F 30.42 in NNW 3 mph 14 mph 58.2% 0.00 in 251 W/m2
10:19 17.8 °F 6 °F 30.42 in North 2.1 mph 14 mph 59% 0.00 in 311 W/m2
10:24 18.3 °F 6.2 °F 30.42 in NNW 3 mph 14 mph 58.5% 0.00 in 330 W/m2
10:29 18.7 °F 6.6 °F 30.42 in NNW 1.7 mph 14 mph 58.6% 0.00 in 475 W/m2
10:34 19.4 °F 7.2 °F 30.42 in NNW 2.8 mph 14 mph 58.7% 0.00 in 485 W/m2
10:39 20.4 °F 8.5 °F 30.42 in NNW 1.5 mph 10 mph 59.4% 0.00 in 448 W/m2
10:44 21.2 °F 8.7 °F 30.41 in North 2.6 mph 10 mph 57.9% 0.00 in 499 W/m2
10:49 21.9 °F 8.8 °F 30.41 in NE 1 mph 10 mph 56.5% 0.00 in 508 W/m2
10:54 22.2 °F 8.6 °F 30.41 in ENE 1.7 mph 10 mph 55.4% 0.00 in 515 W/m2
10:59 22.1 °F 8.5 °F 30.41 in North 1.3 mph 10 mph 55.3% 0.00 in 520 W/m2
11:04 22.4 °F 9.1 °F 30.40 in NNW 2.5 mph 10 mph 56.2% 0.00 in 445 W/m2
11:09 22.8 °F 9.9 °F 30.40 in NNW 1.9 mph 7 mph 57.2% 0.00 in 360 W/m2
11:14 23.2 °F 9.8 °F 30.40 in NE 2.7 mph 7 mph 56% 0.00 in 118 W/m2
11:19 23.1 °F 8.8 °F 30.39 in ENE 1 mph 7 mph 53.8% 0.00 in 113 W/m2
11:24 22.6 °F 8.6 °F 30.39 in NNE 1.7 mph 7 mph 54.1% 0.00 in 246 W/m2
11:29 22.6 °F 9.4 °F 30.39 in NNW 1.1 mph 7 mph 56.4% 0.00 in 246 W/m2
11:34 22.8 °F 10 °F 30.38 in North 0.9 mph 7 mph 57.3% 0.00 in 343 W/m2
11:39 23.1 °F 10.1 °F 30.38 in NNE 1 mph 5 mph 57% 0.00 in 531 W/m2
11:44 23.2 °F 10.3 °F 30.37 in NNW 1.6 mph 9 mph 57.1% 0.00 in 531 W/m2
11:49 23.5 °F 10.8 °F 30.37 in North 1.1 mph 9 mph 57.6% 0.00 in 306 W/m2
11:54 23.8 °F 10.6 °F 30.37 in North 1.2 mph 9 mph 56.5% 0.00 in 220 W/m2
11:59 23.8 °F 10.4 °F 30.36 in NE 0.9 mph 9 mph 56% 0.00 in 209 W/m2
12:09 23.8 °F 10.8 °F 30.35 in NE 1.5 mph 6 mph 56.9% 0.00 in 227 W/m2
12:14 23.9 °F 10.6 °F 30.35 in NE 0.7 mph 6 mph 56.2% 0.00 in 172 W/m2
12:19 24.2 °F 11.2 °F 30.35 in North 0.7 mph 6 mph 57.2% 0.00 in 118 W/m2
12:24 24.6 °F 11.6 °F 30.35 in NNW 0.9 mph 6 mph 57% 0.00 in 394 W/m2
12:29 25.1 °F 11.6 °F 30.34 in North 0.6 mph 6 mph 56% 0.00 in 385 W/m2
12:34 25.3 °F 11.5 °F 30.34 in NNW 1.7 mph 8 mph 55.2% 0.00 in 257 W/m2
12:39 25.3 °F 11.3 °F 30.33 in North 1.4 mph 8 mph 54.7% 0.00 in 160 W/m2
12:44 25.3 °F 11.4 °F 30.32 in North 0.8 mph 8 mph 55% 0.00 in 417 W/m2
12:49 25.3 °F 11.6 °F 30.32 in NE 1.5 mph 8 mph 55.6% 0.00 in 403 W/m2
12:54 25.1 °F 11.3 °F 30.30 in ENE 0.6 mph 8 mph 55.2% 0.00 in 127 W/m2
12:59 25.3 °F 12.1 °F 30.30 in NNE 1.2 mph 8 mph 56.8% 0.00 in 176 W/m2
13:04 25.3 °F 11.6 °F 30.30 in NNE 1 mph 8 mph 55.5% 0.00 in 176 W/m2
13:09 25.2 °F 11.6 °F 30.29 in NE 1.3 mph 6 mph 55.7% 0.00 in 47 W/m2
13:14 25 °F 11.5 °F 30.28 in ENE 0.5 mph 6 mph 55.9% 0.00 in 197 W/m2
13:19 25.2 °F 12.4 °F 30.28 in NE 0.5 mph 6 mph 57.5% 0.00 in 160 W/m2
13:24 25.7 °F 12.4 °F 30.28 in Calm   6 mph 56.6% 0.00 in 316 W/m2
13:29 26.1 °F 12.8 °F 30.28 in NE 0.2 mph 6 mph 56.6% 0.00 in 403 W/m2
13:34 26.6 °F 13.1 °F 30.27 in NE 0.5 mph 6 mph 56.1% 0.00 in 216 W/m2
13:39 26.8 °F 12.9 °F 30.27 in NNE 0.9 mph 4 mph 55.2% 0.00 in 183 W/m2
13:44 26.8 °F 12.7 °F 30.26 in NNE 0.3 mph 4 mph 54.9% 0.00 in 220 W/m2
13:49 26.7 °F 12.4 °F 30.26 in Calm   4 mph 54.3% 0.00 in 109 W/m2
13:54 26.7 °F 12.7 °F 30.26 in NNE 0.3 mph 4 mph 55% 0.00 in 359 W/m2
13:59 26.7 °F 12.6 °F 30.25 in Calm   4 mph 54.8% 0.00 in 213 W/m2
14:04 26.9 °F 13 °F 30.25 in NE 0.5 mph 4 mph 55.2% 0.00 in 179 W/m2
14:09 27.1 °F 13.1 °F 30.25 in Calm   4 mph 55.1% 0.00 in 199 W/m2
14:14 27.5 °F 13.4 °F 30.25 in NE 0.5 mph 4 mph 55% 0.00 in 243 W/m2
14:19 28 °F 13.7 °F 30.24 in NE 0.1 mph 4 mph 54.4% 0.00 in 281 W/m2
14:24 28.3 °F 13.4 °F 30.24 in NE 0.1 mph 4 mph 53% 0.00 in 179 W/m2
14:29 28.4 °F 13.5 °F 30.24 in NE 0.3 mph 4 mph 53.1% 0.00 in 246 W/m2
14:34 28.4 °F 13.8 °F 30.24 in NE 0.4 mph 4 mph 53.8% 0.00 in 236 W/m2
14:39 28.3 °F 13.8 °F 30.24 in NE 0.5 mph 3 mph 54% 0.00 in 70 W/m2
14:44 28.2 °F 13.7 °F 30.24 in NNE 0.6 mph 3 mph 54% 0.00 in 70 W/m2
14:49 28 °F 13.5 °F 30.24 in NNE 0.4 mph 3 mph 54% 0.00 in 128 W/m2
14:54 27.7 °F 13.5 °F 30.24 in Calm   3 mph 54.7% 0.00 in 98 W/m2
14:59 27.5 °F 13.5 °F 30.24 in NNE 0.2 mph 3 mph 55% 0.00 in 39 W/m2
15:04 27.3 °F 13.3 °F 30.23 in Calm   3 mph 55% 0.00 in 32 W/m2
15:09 27.2 °F 13.5 °F 30.24 in NNE 0.6 mph 3 mph 55.7% 0.00 in 32 W/m2
15:14 27.2 °F 13.6 °F 30.24 in Calm   3 mph 56% 0.00 in 32 W/m2
15:19 27.2 °F 13.8 °F 30.23 in Calm   3 mph 56.5% 0.00 in 30 W/m2
15:24 27.2 °F 14 °F 30.23 in Calm   3 mph 57% 0.00 in 28 W/m2
15:29 27.2 °F 13.9 °F 30.23 in Calm   3 mph 56.7% 0.00 in 28 W/m2
15:34 27.2 °F 13.6 °F 30.23 in Calm   3 mph 56% 0.00 in 25 W/m2
15:39 27.2 °F 13.6 °F 30.23 in Calm     56% 0.00 in 23 W/m2
15:44 27.2 °F 13.7 °F 30.22 in Calm     56.2% 0.00 in 23 W/m2
15:49 27.1 °F 13.9 °F 30.22 in Calm     57% 0.00 in 23 W/m2
15:54 27.1 °F 13.9 °F 30.22 in Calm     57% 0.00 in 23 W/m2
15:59 27.1 °F 13.9 °F 30.22 in Calm     57% 0.00 in 26 W/m2
16:00 27.1 °F 13.9 °F 30.21 in Calm     57% 0.00 in 26 W/m2
16:09 27 °F 13.8 °F 30.21 in Calm     57% 0.00 in 25 W/m2
16:14 27 °F 14 °F 30.20 in Calm     57.5% 0.00 in 21 W/m2
16:19 26.9 °F 14.1 °F 30.20 in Calm     58% 0.00 in 18 W/m2
16:24 26.9 °F 14.1 °F 30.20 in Calm     58% 0.00 in 14 W/m2
16:29 26.8 °F 14.3 °F 30.19 in Calm     58.7% 0.00 in 12 W/m2
16:34 26.7 °F 14.3 °F 30.18 in Calm     59% 0.00 in 11 W/m2
16:39 26.6 °F 14.2 °F 30.18 in Calm     59% 0.00 in 11 W/m2
16:44 26.5 °F 14.1 °F 30.18 in Calm     59% 0.00 in 9 W/m2
16:49 26.4 °F 14 °F 30.18 in Calm     59% 0.00 in 5 W/m2
16:54 26.3 °F 13.9 °F 30.18 in Calm     59% 0.00 in 0 W/m2
16:59 26.2 °F 14.2 °F 30.18 in Calm     60% 0.00 in 0 W/m2
17:04 26.1 °F 14.1 °F 30.18 in Calm     60% 0.00 in 0 W/m2
17:09 25.9 °F 14 °F 30.17 in Calm     60% 0.00 in 0 W/m2
17:14 25.8 °F 13.8 °F 30.17 in Calm     60.1% 0.00 in 0 W/m2
17:19 25.7 °F 14.1 °F 30.17 in Calm     61% 0.00 in 0 W/m2
17:24 25.6 °F 14 °F 30.18 in Calm     61% 0.00 in 0 W/m2
17:29 25.6 °F 14.2 °F 30.18 in Calm     61.5% 0.00 in 0 W/m2
17:34 25.6 °F 14.5 °F 30.18 in Calm     62.3% 0.00 in 0 W/m2
17:39 25.6 °F 14.8 °F 30.17 in Calm     63% 0.00 in 0 W/m2
17:44 25.5 °F 14.5 °F 30.17 in Calm     62.7% 0.00 in 0 W/m2
17:49 25.3 °F 14.2 °F 30.17 in Calm     62.2% 0.00 in 0 W/m2
17:54 25.1 °F 14.3 °F 30.17 in Calm     62.8% 0.00 in 0 W/m2
17:59 25 °F 14.2 °F 30.17 in Calm     63% 0.00 in 0 W/m2
18:04 24.9 °F 14.1 °F 30.17 in Calm     63% 0.00 in 0 W/m2
18:09 24.9 °F 14.1 °F 30.17 in Calm     63% 0.00 in 0 W/m2
18:14 24.8 °F 14.4 °F 30.17 in Calm     64% 0.00 in 0 W/m2
18:19 24.7 °F 14.5 °F 30.16 in Calm     64.5% 0.00 in 0 W/m2
18:24 24.7 °F 14.4 °F 30.16 in Calm     64.4% 0.00 in 0 W/m2
18:29 24.5 °F 14.1 °F 30.16 in Calm     64% 0.00 in 0 W/m2
18:34 24.5 °F 14.3 °F 30.16 in Calm     64.7% 0.00 in 0 W/m2
18:39 24.4 °F 14.3 °F 30.15 in Calm     65% 0.00 in 0 W/m2
18:44 24.3 °F 14.2 °F 30.15 in Calm     65% 0.00 in 0 W/m2
18:49 24.2 °F 14.2 °F 30.15 in Calm     65% 0.00 in 0 W/m2
18:54 24.1 °F 14.4 °F 30.15 in Calm     66% 0.00 in 0 W/m2
18:59 24 °F 14.5 °F 30.15 in Calm     66.7% 0.00 in 0 W/m2
19:04 23.9 °F 14.5 °F 30.14 in Calm     67% 0.00 in 0 W/m2
19:09 23.7 °F 14.4 °F 30.14 in Calm     67% 0.00 in 0 W/m2
19:14 23.5 °F 14.2 °F 30.15 in Calm     67% 0.00 in 0 W/m2
19:19 23.3 °F 14.2 °F 30.15 in Calm     67.8% 0.00 in 0 W/m2
19:24 23 °F 14.2 °F 30.15 in Calm     68.5% 0.00 in 0 W/m2
19:29 22.7 °F 14.2 °F 30.14 in Calm     69.3% 0.00 in 0 W/m2
19:34 22.5 °F 14.2 °F 30.14 in Calm     70% 0.00 in 0 W/m2
19:39 22.3 °F 14.1 °F 30.14 in Calm     70.4% 0.00 in 0 W/m2
19:44 22.1 °F 14.1 °F 30.13 in Calm     71% 0.00 in 0 W/m2
19:49 22 °F 14.2 °F 30.12 in Calm     71.7% 0.00 in 0 W/m2
19:54 22 °F 14.6 °F 30.13 in Calm     72.9% 0.00 in 0 W/m2
19:59 22 °F 14.7 °F 30.14 in Calm     73% 0.00 in 0 W/m2
20:00 22 °F 14.7 °F 30.13 in Calm     73% 0.00 in 0 W/m2
20:09 21.9 °F 14.6 °F 30.13 in Calm     73% 0.00 in 0 W/m2
20:14 21.8 °F 14.5 °F 30.14 in Calm     73% 0.00 in 0 W/m2
20:19 21.7 °F 14.5 °F 30.13 in Calm     73.5% 0.00 in 0 W/m2
20:24 21.6 °F 14.7 °F 30.12 in Calm     74.4% 0.00 in 0 W/m2
20:29 21.5 °F 14.9 °F 30.12 in Calm     75% 0.00 in 0 W/m2
20:34 21.5 °F 14.6 °F 30.12 in Calm     74.3% 0.00 in 0 W/m2
20:39 21.4 °F 14.4 °F 30.12 in Calm     74.1% 0.00 in 0 W/m2
20:44 21.3 °F 14.6 °F 30.11 in Calm     75% 0.00 in 0 W/m2
20:49 21.3 °F 14.6 °F 30.11 in Calm     75% 0.00 in 0 W/m2
20:54 21.3 °F 14.9 °F 30.11 in Calm     75.9% 0.00 in 0 W/m2
20:59 21.3 °F 14.9 °F 30.11 in Calm     76% 0.00 in 0 W/m2
21:03 21.4 °F 15 °F 30.11 in Calm     76% 0.00 in 0 W/m2
Hartford County Weather
Compliments of Weather Underground - 4 mb